Time;durP1;ratioP1;P1;durP2;ratioP2;P2;SDS_P1;SDS_P2;PMS_P1;PMS_P2;Temp;Humidity;BMP_temperature;BMP_pressure;BME280_temperature;BME280_humidity;BME280_pressure;Samples;Min_cycle;Max_cycle;Signal;HPM_P1;HPM_P2
2022/02/13 00:00:25;;;;;;;15.80;10.13;;;1.10;83.40;;;;;;4963865;28;20670;-73
2022/02/13 00:02:51;;;;;;;23.77;10.65;;;1.10;83.40;;;;;;4964279;28;20188;-72
2022/02/13 00:05:21;;;;;;;24.27;11.10;;;1.10;83.60;;;;;;4966234;28;20189;-73
2022/02/13 00:07:46;;;;;;;12.73;8.48;;;1.20;83.40;;;;;;4963566;28;20269;-73
2022/02/13 00:10:13;;;;;;;19.80;9.47;;;1.20;83.40;;;;;;4965278;28;20303;-73
2022/02/13 00:12:39;;;;;;;15.27;8.48;;;1.20;83.60;;;;;;4971931;28;20203;-72
2022/02/13 00:15:06;;;;;;;17.73;8.70;;;1.20;83.40;;;;;;4972625;28;20194;-71
2022/02/13 00:17:32;;;;;;;16.80;8.80;;;1.20;83.30;;;;;;4971976;28;20179;-73
2022/02/13 00:19:59;;;;;;;19.50;9.95;;;1.10;83.60;;;;;;4972059;28;20980;-71
2022/02/13 00:22:25;;;;;;;18.27;9.93;;;1.10;83.80;;;;;;4971069;28;20242;-72
2022/02/13 00:24:51;;;;;;;15.63;8.55;;;1.10;84.10;;;;;;4970901;28;20214;-73
2022/02/13 00:27:17;;;;;;;17.27;8.60;;;1.10;84.00;;;;;;4971844;28;20203;-71
2022/02/13 00:29:43;;;;;;;17.10;9.27;;;1.10;84.10;;;;;;4981541;28;20954;-71
2022/02/13 00:32:12;;;;;;;17.37;9.57;;;1.10;84.30;;;;;;4986231;28;20462;-73
2022/02/13 00:34:38;;;;;;;17.67;9.55;;;1.10;84.30;;;;;;4976004;28;20427;-72
2022/02/13 00:37:04;;;;;;;19.30;9.97;;;1.10;84.30;;;;;;4971902;28;20194;-71
2022/02/13 00:39:29;;;;;;;19.45;9.95;;;1.10;84.40;;;;;;4976398;28;20426;-71
2022/02/13 00:41:56;;;;;;;20.70;10.83;;;1.00;84.60;;;;;;4972125;28;20278;-71
2022/02/13 00:44:22;;;;;;;22.05;11.25;;;1.00;84.40;;;;;;4975082;28;20199;-70
2022/02/13 00:46:47;;;;;;;16.20;10.20;;;1.00;84.60;;;;;;4974230;28;20729;-72
2022/02/13 00:49:14;;;;;;;20.50;10.60;;;1.00;84.60;;;;;;4977356;28;20194;-71
2022/02/13 00:51:40;;;;;;;15.18;9.02;;;1.00;84.40;;;;;;4967331;28;20678;-72
2022/02/13 00:54:05;;;;;;;22.77;10.30;;;1.00;84.10;;;;;;4972007;28;20577;-72
2022/02/13 00:56:31;;;;;;;17.10;9.10;;;1.00;84.10;;;;;;4972161;28;20183;-71
2022/02/13 00:58:57;;;;;;;20.53;9.67;;;0.90;84.10;;;;;;4989503;28;20261;-72
2022/02/13 01:01:23;;;;;;;14.10;8.43;;;0.90;84.10;;;;;;4973247;28;20207;-72
2022/02/13 01:03:48;;;;;;;18.70;9.20;;;0.90;84.00;;;;;;4985407;28;20198;-73
2022/02/13 01:06:14;;;;;;;16.40;9.10;;;0.90;84.10;;;;;;4994969;28;20250;-74
2022/02/13 01:08:40;;;;;;;17.03;8.87;;;0.90;84.00;;;;;;4994389;28;20186;-71
2022/02/13 01:11:06;;;;;;;19.20;9.43;;;0.80;84.30;;;;;;4986991;28;20449;-72
2022/02/13 01:13:33;;;;;;;15.27;8.73;;;0.80;84.60;;;;;;4991533;28;20217;-73
2022/02/13 01:15:59;;;;;;;17.35;9.30;;;0.70;84.70;;;;;;4973321;28;20673;-73
2022/02/13 01:18:25;;;;;;;19.70;9.43;;;0.70;85.20;;;;;;4965880;28;20560;-72
2022/02/13 01:20:51;;;;;;;21.43;10.40;;;0.70;85.50;;;;;;4984152;28;20203;-71
2022/02/13 01:23:17;;;;;;;17.13;9.57;;;0.70;85.50;;;;;;4976984;28;20593;-71
2022/02/13 01:25:44;;;;;;;22.55;10.40;;;0.60;85.70;;;;;;4977685;28;20190;-73
2022/02/13 01:28:09;;;;;;;15.88;9.75;;;0.70;85.70;;;;;;4977522;28;20692;-73
2022/02/13 01:30:35;;;;;;;16.87;9.70;;;0.60;85.90;;;;;;4984697;28;20215;-71
2022/02/13 01:33:02;;;;;;;17.63;9.50;;;0.70;85.90;;;;;;4971506;28;20226;-71
2022/02/13 01:35:27;;;;;;;21.10;10.63;;;0.80;85.60;;;;;;4971187;28;20933;-72
2022/02/13 01:37:53;;;;;;;13.40;9.00;;;0.80;85.30;;;;;;4971489;28;20238;-72
2022/02/13 01:40:19;;;;;;;14.60;9.03;;;0.80;85.30;;;;;;4970955;28;20451;-72
2022/02/13 01:42:45;;;;;;;19.80;9.10;;;0.80;85.30;;;;;;4974901;28;20430;-73
2022/02/13 01:45:12;;;;;;;21.88;10.95;;;0.90;85.20;;;;;;4975455;28;20261;-71
2022/02/13 01:47:38;;;;;;;17.58;10.23;;;1.00;85.00;;;;;;4992431;28;20183;-71
2022/02/13 01:50:07;;;;;;;18.73;9.43;;;1.00;84.70;;;;;;4974756;28;20230;-70
2022/02/13 01:52:33;;;;;;;16.15;9.18;;;1.20;84.10;;;;;;4991005;28;20211;-73
2022/02/13 01:54:59;;;;;;;15.73;9.80;;;1.30;83.60;;;;;;4985292;28;20178;-71
2022/02/13 01:57:26;;;;;;;18.37;9.97;;;1.30;83.40;;;;;;4997053;28;20763;-73
2022/02/13 01:59:52;;;;;;;16.98;9.40;;;1.30;83.40;;;;;;4981392;28;21089;-71
2022/02/13 02:02:18;;;;;;;17.63;9.45;;;1.30;83.40;;;;;;4975488;28;20274;-73
2022/02/13 02:04:44;;;;;;;20.63;9.87;;;1.40;83.30;;;;;;4992334;28;20269;-71
2022/02/13 02:07:10;;;;;;;18.83;9.50;;;1.40;83.10;;;;;;4980139;28;20255;-71
2022/02/13 02:09:35;;;;;;;15.10;9.70;;;1.40;83.30;;;;;;4976421;28;20802;-71
2022/02/13 02:12:05;;;;;;;19.63;9.10;;;1.40;83.10;;;;;;4981733;28;20218;-73
2022/02/13 02:14:31;;;;;;;20.67;8.60;;;1.50;82.80;;;;;;4976143;28;20179;-73
2022/02/13 02:16:57;;;;;;;19.23;10.10;;;1.40;82.80;;;;;;4972820;28;20182;-74
2022/02/13 02:19:23;;;;;;;18.47;10.20;;;1.40;83.00;;;;;;4970255;28;20454;-73
2022/02/13 02:21:49;;;;;;;15.20;8.80;;;1.40;83.10;;;;;;4973128;28;20570;-71
2022/02/13 02:24:16;;;;;;;15.95;9.85;;;1.40;83.10;;;;;;4967086;28;20309;-72
2022/02/13 02:26:43;;;;;;;18.58;9.48;;;1.40;83.40;;;;;;4968944;28;20183;-73
2022/02/13 02:29:09;;;;;;;17.85;9.18;;;1.40;83.30;;;;;;4966428;28;20271;-71
2022/02/13 02:31:35;;;;;;;16.53;8.77;;;1.40;83.30;;;;;;4969284;28;20294;-74
2022/02/13 02:34:01;;;;;;;13.43;8.40;;;1.50;83.30;;;;;;4967580;28;20211;-73
2022/02/13 02:36:27;;;;;;;16.45;9.57;;;1.50;83.10;;;;;;4968024;28;20978;-73
2022/02/13 02:38:53;;;;;;;15.90;8.90;;;1.50;83.00;;;;;;4961934;28;20501;-73
2022/02/13 02:41:20;;;;;;;15.00;9.67;;;1.40;83.10;;;;;;4974261;28;20195;-72
2022/02/13 02:43:46;;;;;;;17.92;8.63;;;1.40;83.30;;;;;;4967676;28;20761;-74
2022/02/13 02:46:12;;;;;;;19.33;10.00;;;1.50;83.10;;;;;;4964424;28;20599;-72
2022/02/13 02:48:39;;;;;;;15.15;8.93;;;1.50;83.30;;;;;;4968188;28;20668;-72
2022/02/13 02:51:06;;;;;;;13.88;8.05;;;1.50;83.40;;;;;;4974352;28;20203;-72
2022/02/13 02:53:36;;;;;;;20.08;8.93;;;1.60;83.30;;;;;;4963675;28;20243;-72
2022/02/13 02:56:02;;;;;;;14.40;9.05;;;1.50;83.00;;;;;;4970089;28;20179;-73
2022/02/13 02:58:28;;;;;;;17.23;9.30;;;1.60;83.30;;;;;;4960325;28;20196;-71
2022/02/13 03:00:54;;;;;;;14.23;9.00;;;1.60;83.30;;;;;;4970037;28;20282;-72
2022/02/13 03:03:20;;;;;;;13.17;8.03;;;1.70;83.00;;;;;;4971191;28;20270;-72
2022/02/13 03:05:50;;;;;;;15.05;8.00;;;1.70;82.80;;;;;;4966463;28;20533;-74
2022/02/13 03:08:17;;;;;;;16.23;8.55;;;1.80;82.70;;;;;;4965425;28;20187;-74
2022/02/13 03:10:43;;;;;;;18.52;8.80;;;1.80;82.80;;;;;;4964883;28;20222;-72
2022/02/13 03:13:10;;;;;;;18.35;8.85;;;1.80;82.70;;;;;;4971944;28;20721;-71
2022/02/13 03:15:36;;;;;;;22.15;10.65;;;1.90;82.50;;;;;;4972159;28;20187;-73
2022/02/13 03:18:02;;;;;;;19.50;9.73;;;1.90;82.20;;;;;;4968045;28;20370;-72
2022/02/13 03:20:28;;;;;;;18.00;9.57;;;1.90;82.50;;;;;;4963312;28;20450;-71
2022/02/13 03:22:54;;;;;;;17.20;9.10;;;2.00;82.40;;;;;;4967961;28;20821;-71
2022/02/13 03:25:20;;;;;;;14.77;8.37;;;2.00;82.40;;;;;;4962859;28;21013;-73
2022/02/13 03:27:46;;;;;;;13.30;8.10;;;1.90;82.40;;;;;;4965791;28;20252;-74
2022/02/13 03:30:12;;;;;;;13.90;8.43;;;1.90;82.50;;;;;;4970157;28;20802;-72
2022/02/13 03:32:38;;;;;;;18.17;8.45;;;2.00;82.50;;;;;;4966638;28;20230;-72
2022/02/13 03:35:04;;;;;;;16.63;8.77;;;2.10;82.40;;;;;;4966744;28;20222;-72
2022/02/13 03:37:29;;;;;;;16.80;8.70;;;2.20;81.80;;;;;;4968523;28;20186;-73
2022/02/13 03:39:55;;;;;;;17.70;9.10;;;2.10;81.90;;;;;;4965221;28;20434;-73
2022/02/13 03:42:21;;;;;;;16.33;8.27;;;2.20;81.90;;;;;;4969185;28;20183;-70
2022/02/13 03:44:48;;;;;;;12.93;8.57;;;2.20;81.70;;;;;;4964269;28;20290;-71
2022/02/13 03:47:14;;;;;;;18.60;8.38;;;2.20;81.70;;;;;;4965825;28;20191;-72
2022/02/13 03:49:40;;;;;;;15.37;8.13;;;2.20;82.10;;;;;;4965018;28;21758;-70
2022/02/13 03:52:06;;;;;;;13.63;7.67;;;2.20;81.90;;;;;;4967745;28;20552;-73
2022/02/13 03:54:32;;;;;;;14.05;8.60;;;2.20;81.80;;;;;;4961616;28;20512;-71
2022/02/13 03:56:58;;;;;;;14.20;8.53;;;2.20;81.90;;;;;;4969982;28;20802;-73
2022/02/13 03:59:23;;;;;;;20.50;9.57;;;2.20;82.10;;;;;;4960608;28;20415;-72
2022/02/13 04:01:49;;;;;;;18.07;9.30;;;2.20;82.10;;;;;;4964912;28;20281;-72
2022/02/13 04:04:15;;;;;;;12.93;8.30;;;2.20;82.10;;;;;;4966227;28;20579;-73
2022/02/13 04:06:41;;;;;;;16.10;9.77;;;2.20;82.40;;;;;;4961974;28;20738;-73
2022/02/13 04:09:07;;;;;;;17.80;10.80;;;2.20;82.10;;;;;;4965513;28;20435;-73
2022/02/13 04:11:32;;;;;;;18.73;10.10;;;2.10;82.50;;;;;;4969079;28;20636;-72
2022/02/13 04:13:58;;;;;;;17.23;9.80;;;2.10;82.40;;;;;;4970300;28;20215;-72
2022/02/13 04:16:24;;;;;;;14.93;9.27;;;2.00;82.70;;;;;;4968105;28;20180;-72
2022/02/13 04:18:50;;;;;;;17.53;10.20;;;2.10;82.80;;;;;;4971620;28;20187;-73
2022/02/13 04:21:16;;;;;;;19.10;8.88;;;2.10;82.70;;;;;;4972306;28;20215;-72
2022/02/13 04:23:42;;;;;;;24.00;10.57;;;2.10;82.50;;;;;;4965409;28;20198;-72
2022/02/13 04:26:08;;;;;;;14.10;9.00;;;2.10;82.70;;;;;;4962941;28;20427;-72
2022/02/13 04:28:34;;;;;;;18.50;9.77;;;2.20;82.70;;;;;;4963801;28;20437;-73
2022/02/13 04:31:00;;;;;;;15.83;9.27;;;2.10;82.50;;;;;;4971585;28;20450;-72
2022/02/13 04:33:26;;;;;;;19.17;10.20;;;2.10;82.70;;;;;;4960322;28;20600;-72
2022/02/13 04:35:51;;;;;;;16.10;9.17;;;2.10;82.80;;;;;;4974601;28;20185;-73
2022/02/13 04:38:17;;;;;;;17.90;9.57;;;2.10;83.00;;;;;;4968940;28;20882;-72
2022/02/13 04:40:43;;;;;;;16.87;9.60;;;2.10;83.00;;;;;;4963897;28;20204;-72
2022/02/13 04:43:09;;;;;;;14.27;8.70;;;2.10;82.70;;;;;;4967096;28;20286;-72
2022/02/13 04:45:34;;;;;;;16.23;8.80;;;2.10;83.00;;;;;;4961153;28;20218;-73
2022/02/13 04:48:00;;;;;;;13.20;8.33;;;2.10;82.80;;;;;;4965378;28;20191;-74
2022/02/13 04:50:26;;;;;;;16.23;8.70;;;2.10;82.80;;;;;;4965091;28;20208;-72
2022/02/13 04:52:54;;;;;;;18.60;8.43;;;2.20;82.50;;;;;;4963515;28;20475;-71
2022/02/13 04:55:21;;;;;;;14.55;8.43;;;2.20;82.70;;;;;;4966594;28;20183;-72
2022/02/13 04:57:48;;;;;;;11.80;7.67;;;2.20;82.50;;;;;;4965776;28;20215;-71
2022/02/13 05:00:15;;;;;;;16.40;9.00;;;2.20;82.50;;;;;;4965074;28;20442;-72
2022/02/13 05:02:41;;;;;;;17.58;9.05;;;2.20;82.50;;;;;;4968691;28;20420;-70
2022/02/13 05:05:08;;;;;;;15.00;8.93;;;2.20;82.50;;;;;;4965928;28;20271;-72
2022/02/13 05:07:34;;;;;;;16.88;9.45;;;2.10;82.50;;;;;;4969992;28;20466;-73
2022/02/13 05:10:01;;;;;;;20.48;9.65;;;2.10;82.70;;;;;;4970765;28;20207;-73
2022/02/13 05:12:27;;;;;;;23.83;10.73;;;2.10;82.50;;;;;;4969665;28;20267;-74
2022/02/13 05:14:52;;;;;;;19.80;9.97;;;2.10;82.50;;;;;;4971656;28;20277;-75
2022/02/13 05:17:21;;;;;;;17.70;9.53;;;2.00;82.70;;;;;;4974701;28;20434;-72
2022/02/13 05:19:50;;;;;;;17.70;9.40;;;2.00;83.00;;;;;;4967579;28;20442;-71
2022/02/13 05:22:17;;;;;;;19.20;8.75;;;1.90;83.10;;;;;;4972001;28;20593;-72
2022/02/13 05:24:43;;;;;;;16.15;7.60;;;1.90;83.30;;;;;;4967206;28;20188;-71
2022/02/13 05:27:09;;;;;;;20.05;9.52;;;1.80;83.60;;;;;;4974811;28;20187;-71
2022/02/13 05:29:35;;;;;;;15.10;8.80;;;1.80;83.80;;;;;;4971186;28;20249;-71
2022/02/13 05:32:05;;;;;;;21.63;10.63;;;1.80;84.00;;;;;;4971318;28;20284;-72
2022/02/13 05:34:32;;;;;;;20.75;10.07;;;1.70;84.00;;;;;;4971572;28;20233;-71
2022/02/13 05:36:57;;;;;;;16.77;10.30;;;1.70;84.00;;;;;;4966082;28;20184;-72
2022/02/13 05:39:23;;;;;;;14.10;8.80;;;1.60;84.30;;;;;;4967891;28;20270;-71
2022/02/13 05:41:49;;;;;;;14.87;8.83;;;1.60;84.40;;;;;;4967531;28;20442;-73
2022/02/13 05:44:15;;;;;;;15.73;8.00;;;1.50;84.70;;;;;;4970307;28;20200;-73
2022/02/13 05:46:42;;;;;;;13.07;8.03;;;1.50;85.00;;;;;;4968134;28;20414;-71
2022/02/13 05:49:08;;;;;;;13.05;7.88;;;1.50;85.60;;;;;;4970621;28;20422;-72
2022/02/13 05:51:35;;;;;;;20.45;10.98;;;1.60;85.60;;;;;;4989037;28;20270;-70
2022/02/13 05:54:01;;;;;;;20.52;10.88;;;1.60;85.60;;;;;;4983478;28;20198;-71
2022/02/13 05:56:27;;;;;;;22.23;12.15;;;1.60;85.00;;;;;;4994832;28;20174;-70
2022/02/13 05:58:53;;;;;;;18.80;10.73;;;1.60;84.70;;;;;;4984208;28;20266;-72
2022/02/13 06:01:20;;;;;;;15.88;10.60;;;1.50;84.70;;;;;;4973225;28;20446;-73
2022/02/13 06:03:46;;;;;;;20.23;11.40;;;1.50;84.90;;;;;;4976127;28;20307;-73
2022/02/13 06:06:12;;;;;;;18.13;9.02;;;1.50;84.90;;;;;;4989852;28;20179;-72
2022/02/13 06:08:39;;;;;;;16.38;8.82;;;1.50;84.90;;;;;;4981649;28;20187;-71
2022/02/13 06:11:05;;;;;;;16.17;8.05;;;1.50;85.60;;;;;;4970982;28;20207;-72
2022/02/13 06:13:31;;;;;;;15.20;6.75;;;1.50;85.90;;;;;;4975990;28;20195;-71
2022/02/13 06:15:57;;;;;;;11.47;7.20;;;1.60;86.20;;;;;;4983547;28;20190;-72
2022/02/13 06:18:23;;;;;;;12.00;7.17;;;1.80;86.20;;;;;;4980524;28;20326;-72
2022/02/13 06:20:48;;;;;;;15.70;8.00;;;1.90;85.60;;;;;;4976060;28;20568;-72
2022/02/13 06:23:14;;;;;;;16.63;9.30;;;2.00;84.90;;;;;;4975979;28;20191;-71
2022/02/13 06:25:40;;;;;;;20.80;9.90;;;2.00;83.80;;;;;;4977112;28;20258;-71
2022/02/13 06:28:07;;;;;;;15.00;8.50;;;2.00;83.60;;;;;;4981715;28;20213;-72
2022/02/13 06:30:33;;;;;;;15.75;9.32;;;2.00;83.40;;;;;;4988740;28;20497;-69
2022/02/13 06:32:59;;;;;;;14.80;8.70;;;2.00;83.70;;;;;;4977037;28;20289;-70
2022/02/13 06:35:26;;;;;;;18.45;10.32;;;2.00;83.60;;;;;;4979814;28;20738;-72
2022/02/13 06:37:52;;;;;;;19.38;9.60;;;2.00;83.30;;;;;;4971177;28;20242;-73
2022/02/13 06:40:18;;;;;;;17.73;9.25;;;2.00;83.40;;;;;;4979030;28;20210;-70
2022/02/13 06:42:44;;;;;;;19.53;9.53;;;2.00;83.40;;;;;;4980394;28;20230;-73
2022/02/13 06:45:10;;;;;;;14.93;7.83;;;2.00;83.60;;;;;;4981937;28;20818;-70
2022/02/13 06:47:36;;;;;;;14.90;7.75;;;2.10;83.70;;;;;;4982573;28;20186;-72
2022/02/13 06:50:03;;;;;;;16.17;7.27;;;2.10;83.70;;;;;;4976730;28;20206;-72
2022/02/13 06:52:28;;;;;;;16.70;8.52;;;2.20;83.80;;;;;;4983423;28;20474;-73
2022/02/13 06:54:54;;;;;;;11.50;6.80;;;2.20;83.70;;;;;;4975652;28;20183;-71
2022/02/13 06:57:20;;;;;;;14.57;8.07;;;2.40;83.30;;;;;;4975471;28;20198;-70
2022/02/13 06:59:46;;;;;;;13.00;6.83;;;2.40;83.00;;;;;;4972942;28;20455;-72
2022/02/13 07:02:12;;;;;;;10.43;6.07;;;2.40;83.00;;;;;;4977781;28;20258;-72
2022/02/13 07:04:38;;;;;;;16.23;6.35;;;2.50;82.70;;;;;;4973038;28;20215;-71
2022/02/13 07:07:08;;;;;;;11.60;6.60;;;2.60;82.50;;;;;;4974581;28;20332;-72
2022/02/13 07:09:34;;;;;;;10.07;6.05;;;2.60;82.40;;;;;;4977070;28;20525;-71
2022/02/13 07:12:05;;;;;;;11.50;6.40;;;2.70;81.90;;;;;;4974507;28;20191;-71
2022/02/13 07:14:32;;;;;;;12.30;7.25;;;2.80;81.80;;;;;;4977016;28;20422;-73
2022/02/13 07:16:59;;;;;;;11.88;6.55;;;2.90;81.70;;;;;;4974368;28;20214;-74
2022/02/13 07:19:25;;;;;;;12.23;6.32;;;3.00;81.20;;;;;;4978993;28;20602;-72
2022/02/13 07:21:51;;;;;;;17.73;7.30;;;3.00;80.90;;;;;;4988616;28;20293;-71
2022/02/13 07:24:17;;;;;;;10.30;6.03;;;3.10;80.30;;;;;;4968584;28;20278;-71
2022/02/13 07:26:42;;;;;;;10.13;6.17;;;3.30;79.70;;;;;;4975983;28;20234;-71
2022/02/13 07:29:09;;;;;;;11.97;6.07;;;3.40;79.50;;;;;;4974479;28;20771;-73
2022/02/13 07:31:36;;;;;;;11.17;6.40;;;3.40;78.90;;;;;;4974340;28;20446;-72
2022/02/13 07:34:04;;;;;;;8.77;6.00;;;3.40;79.00;;;;;;4975236;28;20473;-72
2022/02/13 07:36:30;;;;;;;10.10;6.00;;;3.50;79.00;;;;;;4974155;28;20422;-74
2022/02/13 07:38:57;;;;;;;14.97;5.93;;;3.60;79.00;;;;;;4963014;28;20987;-72
2022/02/13 07:41:25;;;;;;;12.67;6.33;;;3.70;78.40;;;;;;4974217;28;20888;-72
2022/02/13 07:43:52;;;;;;;13.73;6.50;;;3.70;78.30;;;;;;4976972;28;20504;-71
2022/02/13 07:46:19;;;;;;;14.20;6.30;;;3.70;78.30;;;;;;4985960;28;20829;-74
2022/02/13 07:48:44;;;;;;;11.57;6.83;;;3.70;78.60;;;;;;4984134;28;20434;-73
2022/02/13 07:51:11;;;;;;;14.80;6.70;;;3.80;78.60;;;;;;4987480;28;20446;-71
2022/02/13 07:53:37;;;;;;;10.93;5.90;;;3.80;78.40;;;;;;4983676;28;20202;-72
2022/02/13 07:56:04;;;;;;;9.93;5.70;;;3.90;78.40;;;;;;4984846;28;20415;-71
2022/02/13 07:58:32;;;;;;;10.13;5.30;;;3.90;78.10;;;;;;4990061;28;20421;-71
2022/02/13 08:01:04;;;;;;;12.37;6.30;;;3.90;77.80;;;;;;4983284;28;20953;-72
2022/02/13 08:03:30;;;;;;;11.83;6.00;;;4.00;77.70;;;;;;4989785;28;20424;-73
2022/02/13 08:05:56;;;;;;;11.43;6.23;;;4.10;77.40;;;;;;4982871;28;20453;-73
2022/02/13 08:08:22;;;;;;;9.17;5.47;;;4.20;77.10;;;;;;4983066;28;20418;-71
2022/02/13 08:10:48;;;;;;;10.30;6.03;;;4.30;77.00;;;;;;4988450;28;20450;-74
2022/02/13 08:13:14;;;;;;;11.77;6.73;;;4.40;76.70;;;;;;4986812;28;20579;-72
2022/02/13 08:15:43;;;;;;;12.60;5.57;;;4.50;76.70;;;;;;4984395;28;20199;-73
2022/02/13 08:18:15;;;;;;;10.97;7.43;;;4.50;76.40;;;;;;4986529;28;20182;-73
2022/02/13 08:20:41;;;;;;;10.80;5.83;;;4.60;76.40;;;;;;4984326;28;21044;-74
2022/02/13 08:23:08;;;;;;;16.30;6.37;;;4.70;76.20;;;;;;4981084;28;20920;-74
2022/02/13 08:25:34;;;;;;;10.03;5.90;;;4.80;76.10;;;;;;4982584;28;20533;-72
2022/02/13 08:28:00;;;;;;;11.37;6.57;;;4.90;75.70;;;;;;4984539;28;20430;-72
2022/02/13 08:30:26;;;;;;;13.60;6.77;;;5.00;75.40;;;;;;4976881;28;20446;-71
2022/02/13 08:32:52;;;;;;;11.40;6.23;;;5.10;75.50;;;;;;4977153;28;20206;-71
2022/02/13 08:35:18;;;;;;;10.30;6.20;;;5.20;75.20;;;;;;4981335;28;20434;-71
2022/02/13 08:37:44;;;;;;;13.33;6.10;;;5.30;74.90;;;;;;4988362;28;20430;-73
2022/02/13 08:40:11;;;;;;;13.57;6.47;;;5.40;74.20;;;;;;4976552;28;20208;-73
2022/02/13 08:42:36;;;;;;;11.40;6.20;;;5.40;74.20;;;;;;4982419;28;20429;-73
2022/02/13 08:45:03;;;;;;;13.50;5.83;;;5.40;74.50;;;;;;4984086;28;20516;-71
2022/02/13 08:47:29;;;;;;;11.40;6.30;;;5.50;74.30;;;;;;4984269;28;20265;-74
2022/02/13 08:49:55;;;;;;;11.73;6.87;;;5.60;74.50;;;;;;4982740;28;20500;-71
2022/02/13 08:52:21;;;;;;;11.17;6.87;;;5.60;74.20;;;;;;4983125;28;20932;-73
2022/02/13 08:54:46;;;;;;;12.03;6.47;;;5.60;74.20;;;;;;4973458;28;20271;-71
2022/02/13 08:57:12;;;;;;;12.00;6.40;;;5.70;74.20;;;;;;4985507;28;20261;-72
2022/02/13 08:59:39;;;;;;;10.60;6.40;;;5.90;73.90;;;;;;4985626;28;20215;-71
2022/02/13 09:02:05;;;;;;;11.87;6.07;;;6.00;73.30;;;;;;4983872;28;20418;-71
2022/02/13 09:04:31;;;;;;;12.90;6.30;;;6.20;73.00;;;;;;4978309;28;20433;-73
2022/02/13 09:07:00;;;;;;;14.07;6.60;;;6.20;72.70;;;;;;4988704;28;20921;-70
2022/02/13 09:09:26;;;;;;;11.93;5.70;;;6.30;72.60;;;;;;4980542;28;21145;-72
2022/02/13 09:11:52;;;;;;;16.73;6.17;;;6.40;72.60;;;;;;4981681;28;20822;-73
2022/02/13 09:14:18;;;;;;;12.07;6.67;;;6.50;72.40;;;;;;4983831;28;20584;-73
2022/02/13 09:16:43;;;;;;;13.33;6.33;;;6.60;72.00;;;;;;4975003;28;20191;-72
2022/02/13 09:19:09;;;;;;;14.37;6.70;;;6.60;71.80;;;;;;4964255;28;20548;-74
2022/02/13 09:21:35;;;;;;;11.40;6.37;;;6.70;71.60;;;;;;4982247;28;20198;-73
2022/02/13 09:24:02;;;;;;;10.50;6.40;;;6.80;71.10;;;;;;4980039;28;20248;-73
2022/02/13 09:26:28;;;;;;;16.33;6.63;;;7.00;70.50;;;;;;4971349;28;20429;-71
2022/02/13 09:28:54;;;;;;;9.77;6.77;;;7.00;70.40;;;;;;4959987;28;20490;-72
2022/02/13 09:31:19;;;;;;;13.17;6.40;;;7.10;69.80;;;;;;4982552;28;20206;-72
2022/02/13 09:33:45;;;;;;;12.03;7.30;;;7.20;70.10;;;;;;4975102;28;20624;-74
2022/02/13 09:36:13;;;;;;;13.77;6.70;;;7.20;69.90;;;;;;4981662;28;20191;-73
2022/02/13 09:38:39;;;;;;;11.83;7.17;;;7.30;69.70;;;;;;4972798;28;20213;-73
2022/02/13 09:41:07;;;;;;;13.87;6.77;;;7.50;69.10;;;;;;4980039;28;20440;-72
2022/02/13 09:43:33;;;;;;;11.37;6.90;;;7.50;68.60;;;;;;4973582;28;20861;-73
2022/02/13 09:45:59;;;;;;;17.43;7.30;;;7.60;68.60;;;;;;4979340;28;20465;-72
2022/02/13 09:48:29;;;;;;;11.47;6.90;;;7.70;68.50;;;;;;4988559;28;20185;-71
2022/02/13 09:50:58;;;;;;;10.10;6.30;;;7.80;68.00;;;;;;4972403;28;20940;-72
2022/02/13 09:53:24;;;;;;;12.83;6.60;;;7.90;67.60;;;;;;4963569;28;20889;-72
2022/02/13 09:55:49;;;;;;;13.60;6.30;;;8.00;67.50;;;;;;4979604;28;20420;-72
2022/02/13 09:58:15;;;;;;;12.20;6.80;;;8.10;66.60;;;;;;4984787;28;20887;-73
2022/02/13 10:00:57;;;;;;;13.60;7.00;;;8.20;66.60;;;;;;4978437;28;20200;-73
2022/02/13 10:03:35;;;;;;;11.80;7.47;;;8.30;66.40;;;;;;4984785;28;20214;-70
2022/02/13 10:06:12;;;;;;;13.13;7.20;;;8.30;66.00;;;;;;4971405;28;20421;-73
2022/02/13 10:08:43;;;;;;;15.80;6.87;;;8.40;65.70;;;;;;4970246;28;20466;-72
2022/02/13 10:11:14;;;;;;;17.30;6.87;;;8.50;65.30;;;;;;4980398;28;20994;-73
2022/02/13 10:13:50;;;;;;;14.83;7.73;;;8.50;65.00;;;;;;4979768;28;20474;-72
2022/02/13 10:16:24;;;;;;;16.67;7.23;;;8.70;64.70;;;;;;4978047;28;20414;-71
2022/02/13 10:19:05;;;;;;;14.13;7.30;;;8.80;64.10;;;;;;4979099;28;20467;-72
2022/02/13 10:21:58;;;;;;;15.23;6.47;;;8.80;63.80;;;;;;4986707;28;20522;-73
2022/02/13 10:24:35;;;;;;;13.67;6.50;;;8.90;63.10;;;;;;4981954;28;20877;-71
2022/02/13 10:27:04;;;;;;;13.93;7.43;;;9.00;63.10;;;;;;4963863;28;20425;-73
2022/02/13 10:29:32;;;;;;;12.60;7.10;;;9.00;62.80;;;;;;4979088;28;20930;-72
2022/02/13 10:32:16;;;;;;;9.60;6.37;;;9.10;62.30;;;;;;4985522;28;20584;-73
2022/02/13 10:35:08;;;;;;;14.10;6.90;;;9.20;62.50;;;;;;4983723;28;20529;-72
2022/02/13 10:37:36;;;;;;;16.00;7.90;;;9.20;62.50;;;;;;4974951;28;20523;-73
2022/02/13 10:40:06;;;;;;;12.13;6.53;;;9.30;62.20;;;;;;4980410;28;20456;-72
2022/02/13 10:42:32;;;;;;;17.83;7.27;;;9.50;62.00;;;;;;4985011;28;20469;-73
2022/02/13 10:45:19;;;;;;;14.43;8.00;;;9.60;61.20;;;;;;4980213;28;20450;-73
2022/02/13 10:47:47;;;;;;;11.80;6.73;;;9.90;60.70;;;;;;4984242;28;20815;-73
2022/02/13 10:50:17;;;;;;;12.93;7.17;;;10.20;59.70;;;;;;4973737;28;20451;-72
2022/02/13 10:52:48;;;;;;;15.93;7.70;;;10.50;58.10;;;;;;4986853;28;20552;-73
2022/02/13 10:55:15;;;;;;;15.30;7.30;;;10.80;57.20;;;;;;4977853;28;20422;-74
2022/02/13 10:57:41;;;;;;;12.53;7.03;;;11.10;56.20;;;;;;4982321;28;20421;-73
2022/02/13 11:00:12;;;;;;;20.73;7.27;;;11.40;55.40;;;;;;4977307;28;20495;-71
2022/02/13 11:02:39;;;;;;;11.53;6.43;;;11.50;54.40;;;;;;4982255;28;20422;-72
2022/02/13 11:05:07;;;;;;;15.73;6.93;;;11.80;54.00;;;;;;4979016;28;20425;-73
2022/02/13 11:07:34;;;;;;;13.37;6.70;;;12.10;53.20;;;;;;4975290;28;20429;-72
2022/02/13 11:10:01;;;;;;;16.20;7.63;;;12.30;52.50;;;;;;4973984;28;20450;-72
2022/02/13 11:12:28;;;;;;;10.87;6.50;;;12.40;52.10;;;;;;4969564;28;20499;-72
2022/02/13 11:15:18;;;;;;;13.00;6.93;;;12.70;51.70;;;;;;4977661;28;21305;-73
2022/02/13 11:17:46;;;;;;;18.13;8.00;;;12.80;50.50;;;;;;4986022;28;20435;-72
2022/02/13 11:20:15;;;;;;;11.33;6.67;;;12.80;50.70;;;;;;4981416;28;20445;-74
2022/02/13 11:22:41;;;;;;;11.63;7.13;;;12.90;50.60;;;;;;4977220;28;20427;-71
2022/02/13 11:25:10;;;;;;;13.30;6.83;;;13.00;49.80;;;;;;4976140;28;20418;-72
2022/02/13 11:27:54;;;;;;;13.00;6.80;;;12.90;49.80;;;;;;4960318;28;20699;-72
2022/02/13 11:30:48;;;;;;;17.63;7.27;;;13.10;49.90;;;;;;4981854;28;20442;-72
2022/02/13 11:33:26;;;;;;;10.37;6.50;;;13.20;49.40;;;;;;4968792;28;20924;-74
2022/02/13 11:35:54;;;;;;;11.90;6.40;;;13.40;48.30;;;;;;4971520;28;20425;-73
2022/02/13 11:38:55;;;;;;;14.73;6.57;;;13.40;48.10;;;;;;4974023;28;20421;-71
2022/02/13 11:41:50;;;;;;;13.87;7.10;;;13.40;49.00;;;;;;4959817;28;20453;-73
2022/02/13 11:44:35;;;;;;;13.27;7.30;;;13.70;48.70;;;;;;4975774;28;20446;-72
2022/02/13 11:47:03;;;;;;;11.07;6.70;;;13.70;48.90;;;;;;4980128;28;20874;-71
2022/02/13 11:49:29;;;;;;;8.23;5.87;;;13.70;48.70;;;;;;4981354;28;20480;-73
2022/02/13 11:51:57;;;;;;;13.73;6.20;;;14.00;48.10;;;;;;4981450;28;21084;-73
2022/02/13 11:54:38;;;;;;;12.03;5.40;;;14.10;45.70;;;;;;4979802;28;20670;-74
2022/02/13 11:57:33;;;;;;;13.23;5.30;;;14.00;45.70;;;;;;4963350;28;20434;-73
2022/02/13 11:59:58;;;;;;;9.17;5.00;;;14.10;44.70;;;;;;4971404;28;20512;-73
2022/02/13 12:02:41;;;;;;;8.80;4.93;;;14.20;45.00;;;;;;4983997;28;20461;-76
2022/02/13 12:05:07;;;;;;;8.37;4.60;;;14.20;43.40;;;;;;4979176;28;20194;-73
2022/02/13 12:07:58;;;;;;;7.00;4.37;;;13.80;43.70;;;;;;4979365;28;20995;-72
2022/02/13 12:10:29;;;;;;;12.53;5.17;;;13.70;43.90;;;;;;4965307;28;20303;-72
2022/02/13 12:13:15;;;;;;;10.40;5.00;;;13.40;44.70;;;;;;4974772;28;20478;-73
2022/02/13 12:15:49;;;;;;;8.53;4.70;;;13.20;45.00;;;;;;4977744;28;21024;-72
2022/02/13 12:18:15;;;;;;;7.37;4.60;;;13.10;45.50;;;;;;4979828;28;20428;-71
2022/02/13 12:20:42;;;;;;;10.87;5.03;;;13.30;45.40;;;;;;4972439;28;20455;-71
2022/02/13 12:23:13;;;;;;;12.80;5.37;;;13.40;45.10;;;;;;4979337;28;20441;-72
2022/02/13 12:25:42;;;;;;;8.23;4.70;;;13.60;44.60;;;;;;4970256;28;20438;-73
2022/02/13 12:28:10;;;;;;;10.20;4.77;;;13.80;44.10;;;;;;4977954;28;20461;-73
2022/02/13 12:30:37;;;;;;;13.27;5.63;;;13.80;43.70;;;;;;4976600;28;20976;-72
2022/02/13 12:33:05;;;;;;;9.07;4.60;;;13.60;43.50;;;;;;4973888;28;20987;-72
2022/02/13 12:35:36;;;;;;;9.07;4.83;;;13.50;43.40;;;;;;4970399;28;20811;-73
2022/02/13 12:38:04;;;;;;;9.87;4.67;;;13.30;43.90;;;;;;4978676;28;20939;-72
2022/02/13 12:40:37;;;;;;;10.30;5.27;;;13.40;43.90;;;;;;4972968;28;21078;-72
2022/02/13 12:43:04;;;;;;;9.17;5.17;;;13.60;43.90;;;;;;4984002;28;20527;-72
2022/02/13 12:45:32;;;;;;;8.73;5.10;;;13.70;43.80;;;;;;4976390;28;20431;-72
2022/02/13 12:48:00;;;;;;;13.10;5.30;;;13.60;43.50;;;;;;4983203;28;20430;-72